sensor_id;sensor_type;location;lat;lon;timestamp;P1;durP1;ratioP1;P2;durP2;ratioP2
11893;SDS011;6006;49.696;8.662;2022-08-16T00:02:03;2.93;;;2.63;;
11893;SDS011;6006;49.696;8.662;2022-08-16T00:04:31;3.33;;;2.67;;
11893;SDS011;6006;49.696;8.662;2022-08-16T00:06:58;3.27;;;2.83;;
11893;SDS011;6006;49.696;8.662;2022-08-16T00:09:26;3.00;;;2.80;;
11893;SDS011;6006;49.696;8.662;2022-08-16T00:11:53;2.97;;;2.67;;
11893;SDS011;6006;49.696;8.662;2022-08-16T00:14:22;3.30;;;3.00;;
11893;SDS011;6006;49.696;8.662;2022-08-16T00:16:51;3.33;;;3.03;;
11893;SDS011;6006;49.696;8.662;2022-08-16T00:19:19;2.83;;;2.63;;
11893;SDS011;6006;49.696;8.662;2022-08-16T00:21:47;3.47;;;2.80;;
11893;SDS011;6006;49.696;8.662;2022-08-16T00:24:14;2.77;;;2.57;;
11893;SDS011;6006;49.696;8.662;2022-08-16T00:26:43;3.57;;;3.27;;
11893;SDS011;6006;49.696;8.662;2022-08-16T00:29:10;3.40;;;3.10;;
11893;SDS011;6006;49.696;8.662;2022-08-16T00:31:38;3.20;;;2.90;;
11893;SDS011;6006;49.696;8.662;2022-08-16T00:34:05;3.30;;;3.00;;
11893;SDS011;6006;49.696;8.662;2022-08-16T00:36:32;3.20;;;2.87;;
11893;SDS011;6006;49.696;8.662;2022-08-16T00:38:59;4.73;;;3.17;;
11893;SDS011;6006;49.696;8.662;2022-08-16T00:41:27;3.93;;;3.30;;
11893;SDS011;6006;49.696;8.662;2022-08-16T00:43:57;3.47;;;3.17;;
11893;SDS011;6006;49.696;8.662;2022-08-16T00:46:26;3.50;;;3.30;;
11893;SDS011;6006;49.696;8.662;2022-08-16T00:48:58;2.90;;;2.70;;
11893;SDS011;6006;49.696;8.662;2022-08-16T00:51:26;3.60;;;3.30;;
11893;SDS011;6006;49.696;8.662;2022-08-16T00:53:53;3.60;;;3.30;;
11893;SDS011;6006;49.696;8.662;2022-08-16T00:56:22;3.77;;;3.47;;
11893;SDS011;6006;49.696;8.662;2022-08-16T00:58:51;3.53;;;3.23;;
11893;SDS011;6006;49.696;8.662;2022-08-16T01:01:20;3.53;;;3.20;;
11893;SDS011;6006;49.696;8.662;2022-08-16T01:03:48;3.77;;;3.33;;
11893;SDS011;6006;49.696;8.662;2022-08-16T01:06:18;4.47;;;3.00;;
11893;SDS011;6006;49.696;8.662;2022-08-16T01:08:47;3.70;;;2.80;;
11893;SDS011;6006;49.696;8.662;2022-08-16T01:11:17;4.43;;;3.53;;
11893;SDS011;6006;49.696;8.662;2022-08-16T01:13:44;4.20;;;3.40;;
11893;SDS011;6006;49.696;8.662;2022-08-16T01:16:14;3.33;;;3.03;;
11893;SDS011;6006;49.696;8.662;2022-08-16T01:18:46;3.60;;;3.30;;
11893;SDS011;6006;49.696;8.662;2022-08-16T01:21:22;3.63;;;3.33;;
11893;SDS011;6006;49.696;8.662;2022-08-16T01:24:09;4.07;;;3.70;;
11893;SDS011;6006;49.696;8.662;2022-08-16T01:26:50;3.53;;;3.23;;
11893;SDS011;6006;49.696;8.662;2022-08-16T01:29:21;3.20;;;2.90;;
11893;SDS011;6006;49.696;8.662;2022-08-16T01:31:53;4.20;;;3.10;;
11893;SDS011;6006;49.696;8.662;2022-08-16T01:34:20;3.23;;;2.93;;
11893;SDS011;6006;49.696;8.662;2022-08-16T01:36:48;3.23;;;2.93;;
11893;SDS011;6006;49.696;8.662;2022-08-16T01:39:24;4.43;;;3.47;;
11893;SDS011;6006;49.696;8.662;2022-08-16T01:41:51;4.00;;;3.50;;
11893;SDS011;6006;49.696;8.662;2022-08-16T01:44:18;4.33;;;3.43;;
11893;SDS011;6006;49.696;8.662;2022-08-16T01:46:46;4.30;;;3.87;;
11893;SDS011;6006;49.696;8.662;2022-08-16T01:49:15;3.30;;;3.10;;
11893;SDS011;6006;49.696;8.662;2022-08-16T01:51:47;4.00;;;3.60;;
11893;SDS011;6006;49.696;8.662;2022-08-16T01:54:19;3.83;;;3.53;;
11893;SDS011;6006;49.696;8.662;2022-08-16T01:56:47;4.03;;;3.63;;
11893;SDS011;6006;49.696;8.662;2022-08-16T01:59:14;3.63;;;3.23;;
11893;SDS011;6006;49.696;8.662;2022-08-16T02:01:42;3.80;;;3.50;;
11893;SDS011;6006;49.696;8.662;2022-08-16T02:04:09;3.97;;;3.50;;
11893;SDS011;6006;49.696;8.662;2022-08-16T02:06:37;4.93;;;4.07;;
11893;SDS011;6006;49.696;8.662;2022-08-16T02:09:04;3.70;;;3.40;;
11893;SDS011;6006;49.696;8.662;2022-08-16T02:11:32;3.80;;;3.50;;
11893;SDS011;6006;49.696;8.662;2022-08-16T02:14:02;5.40;;;3.70;;
11893;SDS011;6006;49.696;8.662;2022-08-16T02:16:30;3.87;;;3.57;;
11893;SDS011;6006;49.696;8.662;2022-08-16T02:18:57;4.13;;;3.70;;
11893;SDS011;6006;49.696;8.662;2022-08-16T02:21:24;3.90;;;3.50;;
11893;SDS011;6006;49.696;8.662;2022-08-16T02:23:52;4.17;;;3.77;;
11893;SDS011;6006;49.696;8.662;2022-08-16T02:26:19;4.50;;;4.07;;
11893;SDS011;6006;49.696;8.662;2022-08-16T02:28:46;4.43;;;4.03;;
11893;SDS011;6006;49.696;8.662;2022-08-16T02:31:14;4.30;;;3.90;;
11893;SDS011;6006;49.696;8.662;2022-08-16T02:33:41;3.80;;;3.50;;
11893;SDS011;6006;49.696;8.662;2022-08-16T02:36:09;4.30;;;3.80;;
11893;SDS011;6006;49.696;8.662;2022-08-16T02:38:37;4.73;;;4.20;;
11893;SDS011;6006;49.696;8.662;2022-08-16T02:41:05;4.20;;;3.83;;
11893;SDS011;6006;49.696;8.662;2022-08-16T02:43:34;4.67;;;4.00;;
11893;SDS011;6006;49.696;8.662;2022-08-16T02:46:02;4.40;;;4.03;;
11893;SDS011;6006;49.696;8.662;2022-08-16T02:48:31;4.57;;;4.17;;
11893;SDS011;6006;49.696;8.662;2022-08-16T02:50:59;3.97;;;3.63;;
11893;SDS011;6006;49.696;8.662;2022-08-16T02:53:28;3.90;;;3.60;;
11893;SDS011;6006;49.696;8.662;2022-08-16T02:55:55;4.47;;;4.10;;
11893;SDS011;6006;49.696;8.662;2022-08-16T02:58:22;4.40;;;3.73;;
11893;SDS011;6006;49.696;8.662;2022-08-16T03:00:50;6.00;;;3.87;;
11893;SDS011;6006;49.696;8.662;2022-08-16T03:03:18;4.83;;;4.03;;
11893;SDS011;6006;49.696;8.662;2022-08-16T03:05:46;5.50;;;3.80;;
11893;SDS011;6006;49.696;8.662;2022-08-16T03:08:15;5.63;;;4.23;;
11893;SDS011;6006;49.696;8.662;2022-08-16T03:10:42;4.67;;;4.27;;
11893;SDS011;6006;49.696;8.662;2022-08-16T03:13:09;4.20;;;3.80;;
11893;SDS011;6006;49.696;8.662;2022-08-16T03:15:37;4.20;;;3.90;;
11893;SDS011;6006;49.696;8.662;2022-08-16T03:18:04;4.00;;;3.70;;
11893;SDS011;6006;49.696;8.662;2022-08-16T03:20:31;4.13;;;3.67;;
11893;SDS011;6006;49.696;8.662;2022-08-16T03:22:59;7.23;;;4.67;;
11893;SDS011;6006;49.696;8.662;2022-08-16T03:25:26;4.43;;;4.03;;
11893;SDS011;6006;49.696;8.662;2022-08-16T03:27:53;8.27;;;4.30;;
11893;SDS011;6006;49.696;8.662;2022-08-16T03:30:21;5.20;;;4.00;;
11893;SDS011;6006;49.696;8.662;2022-08-16T03:32:49;4.23;;;3.90;;
11893;SDS011;6006;49.696;8.662;2022-08-16T03:35:18;4.80;;;4.23;;
11893;SDS011;6006;49.696;8.662;2022-08-16T03:37:47;4.77;;;3.73;;
11893;SDS011;6006;49.696;8.662;2022-08-16T03:40:15;4.33;;;3.93;;
11893;SDS011;6006;49.696;8.662;2022-08-16T03:42:42;4.70;;;4.30;;
11893;SDS011;6006;49.696;8.662;2022-08-16T03:45:09;5.20;;;4.40;;
11893;SDS011;6006;49.696;8.662;2022-08-16T03:47:36;5.43;;;4.93;;
11893;SDS011;6006;49.696;8.662;2022-08-16T03:50:03;5.03;;;4.57;;
11893;SDS011;6006;49.696;8.662;2022-08-16T03:52:31;5.60;;;4.43;;
11893;SDS011;6006;49.696;8.662;2022-08-16T03:54:59;4.37;;;3.93;;
11893;SDS011;6006;49.696;8.662;2022-08-16T03:57:28;4.13;;;3.83;;
11893;SDS011;6006;49.696;8.662;2022-08-16T03:59:56;4.63;;;4.23;;
11893;SDS011;6006;49.696;8.662;2022-08-16T04:02:23;4.60;;;4.20;;
11893;SDS011;6006;49.696;8.662;2022-08-16T04:04:50;3.70;;;3.37;;
11893;SDS011;6006;49.696;8.662;2022-08-16T04:07:19;4.57;;;4.20;;
11893;SDS011;6006;49.696;8.662;2022-08-16T04:09:45;4.80;;;4.40;;
11893;SDS011;6006;49.696;8.662;2022-08-16T04:12:12;5.07;;;4.60;;
11893;SDS011;6006;49.696;8.662;2022-08-16T04:14:41;4.80;;;4.40;;
11893;SDS011;6006;49.696;8.662;2022-08-16T04:17:07;5.87;;;4.17;;
11893;SDS011;6006;49.696;8.662;2022-08-16T04:19:34;5.10;;;4.63;;
11893;SDS011;6006;49.696;8.662;2022-08-16T04:22:01;4.73;;;4.30;;
11893;SDS011;6006;49.696;8.662;2022-08-16T04:24:28;4.37;;;3.97;;
11893;SDS011;6006;49.696;8.662;2022-08-16T04:26:55;5.20;;;4.70;;
11893;SDS011;6006;49.696;8.662;2022-08-16T04:29:22;4.60;;;4.23;;
11893;SDS011;6006;49.696;8.662;2022-08-16T04:31:51;4.53;;;4.10;;
11893;SDS011;6006;49.696;8.662;2022-08-16T04:34:18;4.50;;;4.10;;
11893;SDS011;6006;49.696;8.662;2022-08-16T04:36:45;5.37;;;4.87;;
11893;SDS011;6006;49.696;8.662;2022-08-16T04:39:13;5.87;;;5.27;;
11893;SDS011;6006;49.696;8.662;2022-08-16T04:41:40;5.00;;;4.60;;
11893;SDS011;6006;49.696;8.662;2022-08-16T04:44:07;4.77;;;4.30;;
11893;SDS011;6006;49.696;8.662;2022-08-16T04:46:33;5.13;;;4.70;;
11893;SDS011;6006;49.696;8.662;2022-08-16T04:49:02;6.00;;;4.50;;
11893;SDS011;6006;49.696;8.662;2022-08-16T04:51:29;5.27;;;4.70;;
11893;SDS011;6006;49.696;8.662;2022-08-16T04:53:56;4.43;;;4.07;;
11893;SDS011;6006;49.696;8.662;2022-08-16T04:56:22;4.47;;;3.67;;
11893;SDS011;6006;49.696;8.662;2022-08-16T04:58:49;5.00;;;4.60;;
11893;SDS011;6006;49.696;8.662;2022-08-16T05:01:16;4.70;;;4.30;;
11893;SDS011;6006;49.696;8.662;2022-08-16T05:03:43;5.53;;;5.03;;
11893;SDS011;6006;49.696;8.662;2022-08-16T05:06:11;14.87;;;5.47;;
11893;SDS011;6006;49.696;8.662;2022-08-16T05:08:38;29.07;;;6.17;;
11893;SDS011;6006;49.696;8.662;2022-08-16T05:11:07;14.50;;;6.03;;
11893;SDS011;6006;49.696;8.662;2022-08-16T05:13:37;6.57;;;4.50;;
11893;SDS011;6006;49.696;8.662;2022-08-16T05:16:05;6.07;;;5.10;;
11893;SDS011;6006;49.696;8.662;2022-08-16T05:18:34;5.87;;;5.27;;
11893;SDS011;6006;49.696;8.662;2022-08-16T05:21:01;5.60;;;5.07;;
11893;SDS011;6006;49.696;8.662;2022-08-16T05:23:29;6.27;;;5.53;;
11893;SDS011;6006;49.696;8.662;2022-08-16T05:25:56;5.63;;;5.23;;
11893;SDS011;6006;49.696;8.662;2022-08-16T05:28:25;7.77;;;5.30;;
11893;SDS011;6006;49.696;8.662;2022-08-16T05:30:52;5.67;;;5.17;;
11893;SDS011;6006;49.696;8.662;2022-08-16T05:33:19;5.83;;;5.33;;
11893;SDS011;6006;49.696;8.662;2022-08-16T05:35:47;5.90;;;5.40;;
11893;SDS011;6006;49.696;8.662;2022-08-16T05:38:15;6.17;;;5.57;;
11893;SDS011;6006;49.696;8.662;2022-08-16T05:40:43;5.88;;;5.38;;
11893;SDS011;6006;49.696;8.662;2022-08-16T05:43:11;5.43;;;4.93;;
11893;SDS011;6006;49.696;8.662;2022-08-16T05:45:37;4.95;;;4.57;;
11893;SDS011;6006;49.696;8.662;2022-08-16T05:48:04;5.15;;;4.65;;
11893;SDS011;6006;49.696;8.662;2022-08-16T05:50:31;5.65;;;5.15;;
11893;SDS011;6006;49.696;8.662;2022-08-16T05:52:58;4.88;;;4.45;;
11893;SDS011;6006;49.696;8.662;2022-08-16T05:55:25;4.95;;;4.50;;
11893;SDS011;6006;49.696;8.662;2022-08-16T05:57:53;4.18;;;3.88;;
11893;SDS011;6006;49.696;8.662;2022-08-16T06:00:20;5.10;;;4.40;;
11893;SDS011;6006;49.696;8.662;2022-08-16T06:02:48;4.75;;;4.28;;
11893;SDS011;6006;49.696;8.662;2022-08-16T06:05:15;4.78;;;4.13;;
11893;SDS011;6006;49.696;8.662;2022-08-16T06:07:42;4.32;;;4.00;;
11893;SDS011;6006;49.696;8.662;2022-08-16T06:10:10;5.15;;;3.80;;
11893;SDS011;6006;49.696;8.662;2022-08-16T06:12:37;4.50;;;3.72;;
11893;SDS011;6006;49.696;8.662;2022-08-16T06:15:07;4.97;;;4.50;;
11893;SDS011;6006;49.696;8.662;2022-08-16T06:17:36;4.90;;;4.40;;
11893;SDS011;6006;49.696;8.662;2022-08-16T06:20:04;4.93;;;4.43;;
11893;SDS011;6006;49.696;8.662;2022-08-16T06:22:32;4.72;;;4.32;;
11893;SDS011;6006;49.696;8.662;2022-08-16T06:24:59;4.90;;;4.20;;
11893;SDS011;6006;49.696;8.662;2022-08-16T06:27:26;4.82;;;4.43;;
11893;SDS011;6006;49.696;8.662;2022-08-16T06:29:53;4.63;;;4.18;;
11893;SDS011;6006;49.696;8.662;2022-08-16T06:32:21;5.35;;;4.82;;
11893;SDS011;6006;49.696;8.662;2022-08-16T06:34:48;7.05;;;5.38;;
11893;SDS011;6006;49.696;8.662;2022-08-16T06:37:15;6.40;;;5.35;;
11893;SDS011;6006;49.696;8.662;2022-08-16T06:39:42;5.90;;;5.40;;
11893;SDS011;6006;49.696;8.662;2022-08-16T06:42:09;7.47;;;6.30;;
11893;SDS011;6006;49.696;8.662;2022-08-16T06:44:36;5.43;;;5.00;;
11893;SDS011;6006;49.696;8.662;2022-08-16T06:47:03;6.28;;;5.75;;
11893;SDS011;6006;49.696;8.662;2022-08-16T06:49:31;5.28;;;4.85;;
11893;SDS011;6006;49.696;8.662;2022-08-16T06:51:58;4.88;;;4.38;;
11893;SDS011;6006;49.696;8.662;2022-08-16T06:54:25;4.85;;;4.38;;
11893;SDS011;6006;49.696;8.662;2022-08-16T06:56:52;5.30;;;4.90;;
11893;SDS011;6006;49.696;8.662;2022-08-16T06:59:19;7.55;;;5.80;;
11893;SDS011;6006;49.696;8.662;2022-08-16T07:01:46;6.38;;;5.78;;
11893;SDS011;6006;49.696;8.662;2022-08-16T07:04:13;5.20;;;4.80;;
11893;SDS011;6006;49.696;8.662;2022-08-16T07:06:41;5.40;;;5.00;;
11893;SDS011;6006;49.696;8.662;2022-08-16T07:09:09;5.22;;;4.72;;
11893;SDS011;6006;49.696;8.662;2022-08-16T07:11:36;5.93;;;5.43;;
11893;SDS011;6006;49.696;8.662;2022-08-16T07:14:03;6.03;;;5.53;;
11893;SDS011;6006;49.696;8.662;2022-08-16T07:16:30;4.65;;;4.35;;
11893;SDS011;6006;49.696;8.662;2022-08-16T07:18:57;8.15;;;5.78;;
11893;SDS011;6006;49.696;8.662;2022-08-16T07:21:24;6.05;;;5.55;;
11893;SDS011;6006;49.696;8.662;2022-08-16T07:23:53;5.35;;;4.63;;
11893;SDS011;6006;49.696;8.662;2022-08-16T07:26:21;5.88;;;5.28;;
11893;SDS011;6006;49.696;8.662;2022-08-16T07:28:50;5.55;;;4.80;;
11893;SDS011;6006;49.696;8.662;2022-08-16T07:31:18;7.07;;;5.13;;
11893;SDS011;6006;49.696;8.662;2022-08-16T07:33:45;6.10;;;5.57;;
11893;SDS011;6006;49.696;8.662;2022-08-16T07:36:13;6.15;;;5.60;;
11893;SDS011;6006;49.696;8.662;2022-08-16T07:38:40;5.40;;;4.90;;
11893;SDS011;6006;49.696;8.662;2022-08-16T07:41:09;6.15;;;5.55;;
11893;SDS011;6006;49.696;8.662;2022-08-16T07:43:37;5.85;;;5.32;;
11893;SDS011;6006;49.696;8.662;2022-08-16T07:46:04;4.85;;;4.45;;
11893;SDS011;6006;49.696;8.662;2022-08-16T07:48:31;6.15;;;5.63;;
11893;SDS011;6006;49.696;8.662;2022-08-16T07:50:58;5.85;;;5.13;;
11893;SDS011;6006;49.696;8.662;2022-08-16T07:53:26;7.28;;;5.47;;
11893;SDS011;6006;49.696;8.662;2022-08-16T07:55:53;7.18;;;6.50;;
11893;SDS011;6006;49.696;8.662;2022-08-16T07:58:22;7.22;;;6.53;;
11893;SDS011;6006;49.696;8.662;2022-08-16T08:00:49;5.45;;;4.95;;
11893;SDS011;6006;49.696;8.662;2022-08-16T08:03:15;6.13;;;5.72;;
11893;SDS011;6006;49.696;8.662;2022-08-16T08:05:42;6.63;;;6.03;;
11893;SDS011;6006;49.696;8.662;2022-08-16T08:08:09;6.65;;;5.47;;
11893;SDS011;6006;49.696;8.662;2022-08-16T08:10:37;5.60;;;5.10;;
11893;SDS011;6006;49.696;8.662;2022-08-16T08:13:04;5.47;;;4.88;;
11893;SDS011;6006;49.696;8.662;2022-08-16T08:15:33;6.43;;;5.82;;
11893;SDS011;6006;49.696;8.662;2022-08-16T08:18:00;6.18;;;5.60;;
11893;SDS011;6006;49.696;8.662;2022-08-16T08:20:27;6.13;;;5.43;;
11893;SDS011;6006;49.696;8.662;2022-08-16T08:22:55;7.20;;;6.50;;
11893;SDS011;6006;49.696;8.662;2022-08-16T08:25:23;5.95;;;5.47;;
11893;SDS011;6006;49.696;8.662;2022-08-16T08:27:50;6.82;;;5.13;;
11893;SDS011;6006;49.696;8.662;2022-08-16T08:30:17;6.55;;;4.78;;
11893;SDS011;6006;49.696;8.662;2022-08-16T08:32:46;4.97;;;4.68;;
11893;SDS011;6006;49.696;8.662;2022-08-16T08:35:14;6.20;;;4.65;;
11893;SDS011;6006;49.696;8.662;2022-08-16T08:37:40;6.68;;;5.75;;
11893;SDS011;6006;49.696;8.662;2022-08-16T08:40:09;6.45;;;5.80;;
11893;SDS011;6006;49.696;8.662;2022-08-16T08:42:37;5.35;;;4.80;;
11893;SDS011;6006;49.696;8.662;2022-08-16T08:45:08;6.07;;;5.57;;
11893;SDS011;6006;49.696;8.662;2022-08-16T08:47:36;5.75;;;5.32;;
11893;SDS011;6006;49.696;8.662;2022-08-16T08:50:06;6.47;;;4.30;;
11893;SDS011;6006;49.696;8.662;2022-08-16T08:52:34;5.10;;;4.60;;
11893;SDS011;6006;49.696;8.662;2022-08-16T08:55:01;6.40;;;5.90;;
11893;SDS011;6006;49.696;8.662;2022-08-16T08:57:29;5.35;;;4.88;;
11893;SDS011;6006;49.696;8.662;2022-08-16T08:59:56;5.68;;;4.93;;
11893;SDS011;6006;49.696;8.662;2022-08-16T09:02:23;5.63;;;4.82;;
11893;SDS011;6006;49.696;8.662;2022-08-16T09:04:50;6.35;;;5.75;;
11893;SDS011;6006;49.696;8.662;2022-08-16T09:07:18;5.50;;;4.85;;
11893;SDS011;6006;49.696;8.662;2022-08-16T09:09:46;5.47;;;5.07;;
11893;SDS011;6006;49.696;8.662;2022-08-16T09:12:13;4.63;;;4.32;;
11893;SDS011;6006;49.696;8.662;2022-08-16T09:14:42;5.80;;;4.97;;
11893;SDS011;6006;49.696;8.662;2022-08-16T09:17:10;6.60;;;5.47;;
11893;SDS011;6006;49.696;8.662;2022-08-16T09:19:37;5.82;;;5.32;;
11893;SDS011;6006;49.696;8.662;2022-08-16T09:22:04;6.00;;;4.72;;
11893;SDS011;6006;49.696;8.662;2022-08-16T09:24:33;6.05;;;4.10;;
11893;SDS011;6006;49.696;8.662;2022-08-16T09:27:00;6.05;;;4.90;;
11893;SDS011;6006;49.696;8.662;2022-08-16T09:29:27;3.88;;;3.55;;
11893;SDS011;6006;49.696;8.662;2022-08-16T09:31:55;4.10;;;3.75;;
11893;SDS011;6006;49.696;8.662;2022-08-16T09:34:23;4.75;;;4.32;;
11893;SDS011;6006;49.696;8.662;2022-08-16T09:36:50;5.00;;;4.50;;
11893;SDS011;6006;49.696;8.662;2022-08-16T09:39:16;5.57;;;4.25;;
11893;SDS011;6006;49.696;8.662;2022-08-16T09:41:47;5.25;;;4.13;;
11893;SDS011;6006;49.696;8.662;2022-08-16T09:44:15;4.80;;;4.40;;
11893;SDS011;6006;49.696;8.662;2022-08-16T09:46:44;4.38;;;3.97;;
11893;SDS011;6006;49.696;8.662;2022-08-16T09:49:11;6.40;;;4.63;;
11893;SDS011;6006;49.696;8.662;2022-08-16T09:51:38;4.05;;;3.75;;
11893;SDS011;6006;49.696;8.662;2022-08-16T09:54:05;4.10;;;3.70;;
11893;SDS011;6006;49.696;8.662;2022-08-16T09:56:35;6.07;;;4.43;;
11893;SDS011;6006;49.696;8.662;2022-08-16T09:59:05;6.63;;;3.88;;
11893;SDS011;6006;49.696;8.662;2022-08-16T10:01:33;4.00;;;3.67;;
11893;SDS011;6006;49.696;8.662;2022-08-16T10:04:02;4.40;;;4.00;;
11893;SDS011;6006;49.696;8.662;2022-08-16T10:06:30;4.00;;;3.75;;
11893;SDS011;6006;49.696;8.662;2022-08-16T10:08:58;4.13;;;3.78;;
11893;SDS011;6006;49.696;8.662;2022-08-16T10:11:24;5.47;;;4.97;;
11893;SDS011;6006;49.696;8.662;2022-08-16T10:14:10;4.80;;;4.45;;
11893;SDS011;6006;49.696;8.662;2022-08-16T10:16:37;4.28;;;3.90;;
11893;SDS011;6006;49.696;8.662;2022-08-16T10:19:04;5.00;;;4.60;;
11893;SDS011;6006;49.696;8.662;2022-08-16T10:21:31;5.53;;;4.68;;
11893;SDS011;6006;49.696;8.662;2022-08-16T10:23:58;5.03;;;4.63;;
11893;SDS011;6006;49.696;8.662;2022-08-16T10:26:25;5.03;;;4.05;;
11893;SDS011;6006;49.696;8.662;2022-08-16T10:28:53;4.38;;;3.97;;
11893;SDS011;6006;49.696;8.662;2022-08-16T10:31:21;4.65;;;4.13;;
11893;SDS011;6006;49.696;8.662;2022-08-16T10:33:48;4.30;;;3.97;;
11893;SDS011;6006;49.696;8.662;2022-08-16T10:36:15;4.13;;;3.83;;
11893;SDS011;6006;49.696;8.662;2022-08-16T10:38:42;4.55;;;3.90;;
11893;SDS011;6006;49.696;8.662;2022-08-16T10:41:10;4.45;;;4.03;;
11893;SDS011;6006;49.696;8.662;2022-08-16T10:43:37;4.95;;;4.53;;
11893;SDS011;6006;49.696;8.662;2022-08-16T10:46:07;4.15;;;3.67;;
11893;SDS011;6006;49.696;8.662;2022-08-16T10:48:37;4.70;;;4.40;;
11893;SDS011;6006;49.696;8.662;2022-08-16T10:51:05;4.65;;;3.97;;
11893;SDS011;6006;49.696;8.662;2022-08-16T10:53:32;4.10;;;3.72;;
11893;SDS011;6006;49.696;8.662;2022-08-16T10:56:01;4.50;;;4.07;;
11893;SDS011;6006;49.696;8.662;2022-08-16T10:58:29;4.15;;;3.72;;
11893;SDS011;6006;49.696;8.662;2022-08-16T11:00:57;4.72;;;4.13;;
11893;SDS011;6006;49.696;8.662;2022-08-16T11:03:24;4.22;;;3.55;;
11893;SDS011;6006;49.696;8.662;2022-08-16T11:05:54;4.15;;;3.75;;
11893;SDS011;6006;49.696;8.662;2022-08-16T11:08:21;5.57;;;3.75;;
11893;SDS011;6006;49.696;8.662;2022-08-16T11:10:48;3.42;;;3.17;;
11893;SDS011;6006;49.696;8.662;2022-08-16T11:13:16;6.63;;;3.80;;
11893;SDS011;6006;49.696;8.662;2022-08-16T11:15:44;3.40;;;3.10;;
11893;SDS011;6006;49.696;8.662;2022-08-16T11:18:11;3.22;;;2.90;;
11893;SDS011;6006;49.696;8.662;2022-08-16T11:20:39;3.80;;;3.50;;
11893;SDS011;6006;49.696;8.662;2022-08-16T11:23:09;3.00;;;2.80;;
11893;SDS011;6006;49.696;8.662;2022-08-16T11:25:37;4.53;;;3.17;;
11893;SDS011;6006;49.696;8.662;2022-08-16T11:28:04;3.35;;;3.08;;
11893;SDS011;6006;49.696;8.662;2022-08-16T11:30:32;2.90;;;2.80;;
11893;SDS011;6006;49.696;8.662;2022-08-16T11:32:59;3.03;;;2.83;;
11893;SDS011;6006;49.696;8.662;2022-08-16T11:35:27;3.40;;;3.05;;
11893;SDS011;6006;49.696;8.662;2022-08-16T11:37:57;4.00;;;3.22;;
11893;SDS011;6006;49.696;8.662;2022-08-16T11:40:28;3.70;;;3.00;;
11893;SDS011;6006;49.696;8.662;2022-08-16T11:42:57;3.25;;;3.05;;
11893;SDS011;6006;49.696;8.662;2022-08-16T11:45:24;3.83;;;3.55;;
11893;SDS011;6006;49.696;8.662;2022-08-16T11:47:51;3.78;;;3.47;;
11893;SDS011;6006;49.696;8.662;2022-08-16T11:50:18;3.42;;;3.22;;
11893;SDS011;6006;49.696;8.662;2022-08-16T11:52:46;4.50;;;3.60;;
11893;SDS011;6006;49.696;8.662;2022-08-16T11:55:14;4.03;;;3.47;;
11893;SDS011;6006;49.696;8.662;2022-08-16T11:57:42;3.63;;;3.42;;
11893;SDS011;6006;49.696;8.662;2022-08-16T12:00:10;2.95;;;2.75;;
11893;SDS011;6006;49.696;8.662;2022-08-16T12:02:40;3.42;;;3.13;;
11893;SDS011;6006;49.696;8.662;2022-08-16T12:05:08;3.35;;;3.13;;
11893;SDS011;6006;49.696;8.662;2022-08-16T12:07:36;3.70;;;3.40;;
11893;SDS011;6006;49.696;8.662;2022-08-16T12:10:04;3.42;;;3.15;;
11893;SDS011;6006;49.696;8.662;2022-08-16T12:12:34;3.75;;;3.45;;
11893;SDS011;6006;49.696;8.662;2022-08-16T12:15:03;3.80;;;3.60;;
11893;SDS011;6006;49.696;8.662;2022-08-16T12:17:31;4.72;;;3.33;;
11893;SDS011;6006;49.696;8.662;2022-08-16T12:19:58;3.45;;;3.15;;
11893;SDS011;6006;49.696;8.662;2022-08-16T12:22:25;3.55;;;3.20;;
11893;SDS011;6006;49.696;8.662;2022-08-16T12:24:52;4.78;;;3.20;;
11893;SDS011;6006;49.696;8.662;2022-08-16T12:27:20;3.70;;;2.70;;
11893;SDS011;6006;49.696;8.662;2022-08-16T12:29:48;2.60;;;2.45;;
11893;SDS011;6006;49.696;8.662;2022-08-16T12:32:16;3.50;;;2.92;;
11893;SDS011;6006;49.696;8.662;2022-08-16T12:34:44;4.20;;;3.35;;
11893;SDS011;6006;49.696;8.662;2022-08-16T12:37:11;3.03;;;2.83;;
11893;SDS011;6006;49.696;8.662;2022-08-16T12:39:39;3.30;;;3.00;;
11893;SDS011;6006;49.696;8.662;2022-08-16T12:42:07;3.55;;;3.25;;
11893;SDS011;6006;49.696;8.662;2022-08-16T12:44:34;3.33;;;3.03;;
11893;SDS011;6006;49.696;8.662;2022-08-16T12:47:02;3.28;;;2.97;;
11893;SDS011;6006;49.696;8.662;2022-08-16T12:49:48;3.38;;;3.10;;
11893;SDS011;6006;49.696;8.662;2022-08-16T12:52:15;3.00;;;2.72;;
11893;SDS011;6006;49.696;8.662;2022-08-16T12:54:42;3.20;;;3.00;;
11893;SDS011;6006;49.696;8.662;2022-08-16T12:57:09;3.70;;;3.35;;
11893;SDS011;6006;49.696;8.662;2022-08-16T12:59:36;3.40;;;3.13;;
11893;SDS011;6006;49.696;8.662;2022-08-16T13:02:03;3.53;;;3.33;;
11893;SDS011;6006;49.696;8.662;2022-08-16T13:04:31;2.92;;;2.70;;
11893;SDS011;6006;49.696;8.662;2022-08-16T13:07:01;5.53;;;3.30;;
11893;SDS011;6006;49.696;8.662;2022-08-16T13:09:29;3.08;;;2.88;;
11893;SDS011;6006;49.696;8.662;2022-08-16T13:11:59;2.90;;;2.70;;
11893;SDS011;6006;49.696;8.662;2022-08-16T13:14:33;3.83;;;3.10;;
11893;SDS011;6006;49.696;8.662;2022-08-16T13:17:03;3.28;;;2.97;;
11893;SDS011;6006;49.696;8.662;2022-08-16T13:19:31;3.60;;;3.30;;
11893;SDS011;6006;49.696;8.662;2022-08-16T13:22:00;5.05;;;3.67;;
11893;SDS011;6006;49.696;8.662;2022-08-16T13:24:27;3.25;;;3.05;;
11893;SDS011;6006;49.696;8.662;2022-08-16T13:26:54;3.60;;;3.30;;
11893;SDS011;6006;49.696;8.662;2022-08-16T13:29:21;3.50;;;3.30;;
11893;SDS011;6006;49.696;8.662;2022-08-16T13:31:48;3.15;;;2.90;;
11893;SDS011;6006;49.696;8.662;2022-08-16T13:34:15;3.60;;;2.88;;
11893;SDS011;6006;49.696;8.662;2022-08-16T13:36:42;3.42;;;3.20;;
11893;SDS011;6006;49.696;8.662;2022-08-16T13:39:10;3.38;;;3.08;;
11893;SDS011;6006;49.696;8.662;2022-08-16T13:41:37;3.25;;;2.95;;
11893;SDS011;6006;49.696;8.662;2022-08-16T13:44:04;3.10;;;2.90;;
11893;SDS011;6006;49.696;8.662;2022-08-16T13:46:32;5.10;;;2.97;;
11893;SDS011;6006;49.696;8.662;2022-08-16T13:48:59;4.45;;;3.10;;
11893;SDS011;6006;49.696;8.662;2022-08-16T13:51:26;3.45;;;3.15;;
11893;SDS011;6006;49.696;8.662;2022-08-16T13:53:55;3.47;;;3.17;;
11893;SDS011;6006;49.696;8.662;2022-08-16T13:56:24;3.00;;;2.88;;
11893;SDS011;6006;49.696;8.662;2022-08-16T13:58:51;2.90;;;2.70;;
11893;SDS011;6006;49.696;8.662;2022-08-16T14:01:18;2.97;;;2.75;;
11893;SDS011;6006;49.696;8.662;2022-08-16T14:03:45;5.30;;;3.13;;
11893;SDS011;6006;49.696;8.662;2022-08-16T14:06:12;4.40;;;3.05;;
11893;SDS011;6006;49.696;8.662;2022-08-16T14:08:40;3.55;;;3.35;;
11893;SDS011;6006;49.696;8.662;2022-08-16T14:11:09;3.45;;;3.22;;
11893;SDS011;6006;49.696;8.662;2022-08-16T14:13:37;3.60;;;3.00;;
11893;SDS011;6006;49.696;8.662;2022-08-16T14:16:05;3.85;;;2.97;;
11893;SDS011;6006;49.696;8.662;2022-08-16T14:18:32;3.75;;;3.00;;
11893;SDS011;6006;49.696;8.662;2022-08-16T14:20:58;4.15;;;3.10;;
11893;SDS011;6006;49.696;8.662;2022-08-16T14:23:25;3.58;;;3.00;;
11893;SDS011;6006;49.696;8.662;2022-08-16T14:25:52;3.25;;;3.05;;
11893;SDS011;6006;49.696;8.662;2022-08-16T14:28:20;3.20;;;2.90;;
11893;SDS011;6006;49.696;8.662;2022-08-16T14:30:49;3.05;;;2.75;;
11893;SDS011;6006;49.696;8.662;2022-08-16T14:33:16;3.38;;;2.75;;
11893;SDS011;6006;49.696;8.662;2022-08-16T14:35:42;3.22;;;3.00;;
11893;SDS011;6006;49.696;8.662;2022-08-16T14:38:10;2.90;;;2.67;;
11893;SDS011;6006;49.696;8.662;2022-08-16T14:40:37;2.80;;;2.60;;
11893;SDS011;6006;49.696;8.662;2022-08-16T14:43:04;3.60;;;2.97;;
11893;SDS011;6006;49.696;8.662;2022-08-16T14:45:32;3.53;;;3.17;;
11893;SDS011;6006;49.696;8.662;2022-08-16T14:48:00;4.85;;;2.63;;
11893;SDS011;6006;49.696;8.662;2022-08-16T14:50:27;3.05;;;2.85;;
11893;SDS011;6006;49.696;8.662;2022-08-16T14:52:55;3.80;;;2.75;;
11893;SDS011;6006;49.696;8.662;2022-08-16T14:55:25;2.75;;;2.55;;
11893;SDS011;6006;49.696;8.662;2022-08-16T14:57:53;2.75;;;2.50;;
11893;SDS011;6006;49.696;8.662;2022-08-16T15:00:20;3.20;;;2.60;;
11893;SDS011;6006;49.696;8.662;2022-08-16T15:02:49;2.50;;;2.40;;
11893;SDS011;6006;49.696;8.662;2022-08-16T15:05:18;2.42;;;2.13;;